createdAt,value
2018-11-05T01:45:04.173Z,9.87
2018-11-05T01:47:33.623Z,11.27
2018-11-05T01:50:02.832Z,9.10
2018-11-05T01:52:32.107Z,9.47
2018-11-05T01:55:01.289Z,9.73
2018-11-05T01:57:30.521Z,11.90
2018-11-05T01:59:59.811Z,13.00
2018-11-05T02:02:29.032Z,10.53
2018-11-05T02:04:58.442Z,9.03
2018-11-05T02:07:27.613Z,11.73
2018-11-05T02:09:56.658Z,10.47
2018-11-05T02:12:25.651Z,10.00
2018-11-05T02:14:54.680Z,10.30
2018-11-05T02:17:23.755Z,9.83
2018-11-05T02:19:52.874Z,8.63
2018-11-05T02:22:21.967Z,12.83
2018-11-05T02:24:51.027Z,9.80
2018-11-05T02:27:20.139Z,9.17
2018-11-05T02:29:49.100Z,10.33
2018-11-05T02:32:18.297Z,9.70
2018-11-05T02:34:47.420Z,9.07
2018-11-05T02:37:16.527Z,10.20
2018-11-05T02:39:45.599Z,8.50
2018-11-05T02:42:14.695Z,9.60
2018-11-05T02:44:43.867Z,10.50
2018-11-05T02:47:12.969Z,10.13
2018-11-05T02:49:42.103Z,10.30
2018-11-05T02:52:11.184Z,9.87
2018-11-05T02:54:40.260Z,8.97
2018-11-05T02:57:09.482Z,9.23
2018-11-05T02:59:38.609Z,10.13
2018-11-05T03:02:07.801Z,8.00
2018-11-05T03:04:36.899Z,8.57
2018-11-05T03:07:05.968Z,8.87
2018-11-05T03:09:35.032Z,8.20
2018-11-05T03:12:04.151Z,10.33
2018-11-05T03:14:33.410Z,11.07
2018-11-05T03:24:26.967Z,8.17
2018-11-05T03:26:56.035Z,9.50
2018-11-05T03:29:25.220Z,10.53
2018-11-05T03:31:54.235Z,8.60
2018-11-05T03:34:23.358Z,10.07
2018-11-05T03:36:52.443Z,9.60
2018-11-05T03:39:21.543Z,10.33
2018-11-05T03:41:50.685Z,9.00
2018-11-05T03:44:19.847Z,10.53
2018-11-05T03:46:49.014Z,9.77
2018-11-05T03:49:18.113Z,8.87
2018-11-05T03:51:47.103Z,8.63
2018-11-05T03:54:16.176Z,9.63
2018-11-05T03:56:45.317Z,9.60
2018-11-05T03:59:14.329Z,8.70
2018-11-05T04:01:43.345Z,13.20
2018-11-05T04:04:12.428Z,11.07
2018-11-05T04:06:41.457Z,11.07
2018-11-05T04:09:11.445Z,11.87
2018-11-05T04:11:40.514Z,12.07
2018-11-05T04:14:09.644Z,11.57
2018-11-05T04:16:38.737Z,10.40
2018-11-05T04:19:07.749Z,12.17
2018-11-05T04:21:44.804Z,8.77
2018-11-05T04:24:14.821Z,10.50
2018-11-05T04:26:45.021Z,9.90
2018-11-05T04:29:14.151Z,10.80
2018-11-05T04:31:43.256Z,10.70
2018-11-05T04:34:12.581Z,9.60
2018-11-05T04:36:41.711Z,11.50
2018-11-05T04:39:13.042Z,11.47
2018-11-05T04:41:42.161Z,12.10
2018-11-05T04:44:11.232Z,11.60
2018-11-05T04:46:40.847Z,10.93
2018-11-05T04:49:10.409Z,12.20
2018-11-05T04:51:39.499Z,9.53
2018-11-05T04:54:08.588Z,10.20
2018-11-05T04:56:37.635Z,11.70
2018-11-05T04:59:07.174Z,12.53
2018-11-05T05:01:37.095Z,12.13
2018-11-05T05:04:06.255Z,12.80
2018-11-05T05:06:35.605Z,11.37
2018-11-05T05:09:07.529Z,11.90
2018-11-05T05:11:36.934Z,12.40
2018-11-05T05:14:06.847Z,12.70
2018-11-05T05:16:36.227Z,10.20
2018-11-05T05:19:05.670Z,9.60
2018-11-05T05:21:34.784Z,11.40
2018-11-05T05:24:04.274Z,9.70
2018-11-05T05:26:33.328Z,9.37
2018-11-05T05:29:02.363Z,10.97
2018-11-05T05:31:31.637Z,10.50
2018-11-05T05:34:00.823Z,10.40
2018-11-05T05:36:29.954Z,9.77
2018-11-05T05:38:59.219Z,10.57
2018-11-05T05:41:28.372Z,11.87
2018-11-05T05:43:57.650Z,8.90
2018-11-05T05:46:26.784Z,11.00
2018-11-05T05:48:55.804Z,11.43
2018-11-05T05:51:24.926Z,10.40
2018-11-05T05:53:54.142Z,11.83
2018-11-05T05:56:23.348Z,10.73
2018-11-05T05:58:52.398Z,9.43
2018-11-05T06:01:21.456Z,11.60
2018-11-05T06:03:50.552Z,11.07
2018-11-05T06:06:19.602Z,11.10
2018-11-05T06:08:48.599Z,12.30
2018-11-05T06:11:17.669Z,9.53
2018-11-05T06:13:46.655Z,10.47
2018-11-05T06:16:15.792Z,10.37
2018-11-05T06:18:44.892Z,9.57
2018-11-05T06:21:13.962Z,10.80
2018-11-05T06:23:43.012Z,10.80
2018-11-05T06:26:12.102Z,10.30
2018-11-05T06:28:41.246Z,11.87
2018-11-05T06:31:10.216Z,9.50
2018-11-05T06:33:39.340Z,10.03
2018-11-05T06:36:08.391Z,12.93
2018-11-05T06:38:37.519Z,12.17
2018-11-05T06:41:07.003Z,12.63
2018-11-05T06:43:35.996Z,10.40
2018-11-05T06:46:05.157Z,12.33
2018-11-05T06:48:34.266Z,13.50
2018-11-05T06:51:03.438Z,13.93
2018-11-05T06:53:32.803Z,12.60
2018-11-05T06:56:02.051Z,12.70
2018-11-05T06:58:31.317Z,16.50
2018-11-05T07:01:00.539Z,20.13
2018-11-05T07:03:29.704Z,17.50
2018-11-05T07:05:59.040Z,14.27
2018-11-05T07:08:28.361Z,13.60
2018-11-05T07:10:57.503Z,15.50
2018-11-05T07:13:26.660Z,19.67
2018-11-05T07:15:55.897Z,21.80
2018-11-05T07:18:25.173Z,15.40
2018-11-05T07:20:54.332Z,14.07
2018-11-05T07:23:23.576Z,17.40
2018-11-05T07:25:52.765Z,14.73
2018-11-05T07:28:21.963Z,15.00
2018-11-05T07:30:51.219Z,13.43
2018-11-05T07:33:20.534Z,16.43
2018-11-05T07:35:49.710Z,12.67
2018-11-05T07:38:18.924Z,14.30
2018-11-05T07:40:48.231Z,16.37
2018-11-05T07:43:17.465Z,17.10
2018-11-05T07:45:46.713Z,14.20
2018-11-05T07:48:16.016Z,14.00
2018-11-05T07:50:47.330Z,15.70
2018-11-05T07:55:45.318Z,15.83
